Time;durP1;ratioP1;P1;durP2;ratioP2;P2;SDS_P1;SDS_P2;PMS_P1;PMS_P2;Temp;Humidity;BMP_temperature;BMP_pressure;BME280_temperature;BME280_humidity;BME280_pressure;Samples;Min_cycle;Max_cycle;Signal;HPM_P1;HPM_P2
2021/11/02 00:01:18;;;;;;;19.95;8.85;;;8.20;95.30;;;;;;5073035;28;20503;-72
2021/11/02 00:03:44;;;;;;;14.25;7.35;;;8.20;95.30;;;;;;5072446;28;20027;-73
2021/11/02 00:06:10;;;;;;;18.92;6.70;;;8.20;95.40;;;;;;5054215;28;20048;-73
2021/11/02 00:08:36;;;;;;;16.27;7.65;;;8.20;95.40;;;;;;5054556;28;20017;-72
2021/11/02 00:11:02;;;;;;;17.65;6.97;;;8.20;95.30;;;;;;5072780;28;20027;-72
2021/11/02 00:13:32;;;;;;;20.00;9.05;;;8.10;95.30;;;;;;5072321;28;20024;-72
2021/11/02 00:16:00;;;;;;;13.40;7.20;;;8.10;95.30;;;;;;5072621;28;20021;-73
2021/11/02 00:18:26;;;;;;;11.38;5.95;;;8.10;95.20;;;;;;5054436;28;20060;-72
2021/11/02 00:20:59;;;;;;;15.15;6.65;;;8.10;95.20;;;;;;5072846;28;20439;-73
2021/11/02 00:23:25;;;;;;;15.80;6.78;;;8.00;95.20;;;;;;5072617;28;20027;-75
2021/11/02 00:25:50;;;;;;;13.98;6.28;;;8.00;95.10;;;;;;5054239;28;20028;-74
2021/11/02 00:28:16;;;;;;;17.83;6.28;;;8.00;95.20;;;;;;5071969;28;20074;-73
2021/11/02 00:30:42;;;;;;;11.98;6.85;;;8.00;95.10;;;;;;5054772;28;20016;-73
2021/11/02 00:33:07;;;;;;;13.32;6.22;;;8.00;95.10;;;;;;5073064;28;20480;-73
2021/11/02 00:35:33;;;;;;;13.02;6.40;;;7.90;95.00;;;;;;5072418;28;20035;-72
2021/11/02 00:37:58;;;;;;;16.45;7.28;;;7.90;95.00;;;;;;5074891;28;20031;-73
2021/11/02 00:40:24;;;;;;;15.95;7.00;;;7.90;95.00;;;;;;5076223;28;20021;-72
2021/11/02 00:42:57;;;;;;;13.48;6.32;;;7.90;94.90;;;;;;5058385;28;20100;-73
2021/11/02 00:45:31;;;;;;;13.18;6.45;;;7.80;94.90;;;;;;5075993;28;20033;-73
2021/11/02 00:47:59;;;;;;;12.82;6.38;;;7.80;94.80;;;;;;5076035;28;20108;-73
2021/11/02 00:50:26;;;;;;;12.48;6.20;;;7.80;94.80;;;;;;5075907;28;20021;-74
2021/11/02 00:52:52;;;;;;;14.82;5.40;;;7.70;94.90;;;;;;5076053;28;20526;-73
2021/11/02 00:55:17;;;;;;;12.75;5.57;;;7.80;95.00;;;;;;5075791;28;20036;-73
2021/11/02 00:57:43;;;;;;;17.15;6.95;;;7.80;95.00;;;;;;5058118;28;20017;-72
2021/11/02 01:00:12;;;;;;;13.13;5.55;;;7.70;94.80;;;;;;5075685;28;20016;-74
2021/11/02 01:02:37;;;;;;;13.48;6.30;;;7.70;94.60;;;;;;5075633;28;20025;-72
2021/11/02 01:05:06;;;;;;;12.57;5.93;;;7.60;94.60;;;;;;5075511;28;20029;-74
2021/11/02 01:07:32;;;;;;;11.20;6.05;;;7.60;94.80;;;;;;5075686;28;20074;-73
2021/11/02 01:10:00;;;;;;;12.98;6.38;;;7.60;94.70;;;;;;5057840;28;20020;-73
2021/11/02 01:12:28;;;;;;;11.77;5.40;;;7.60;94.90;;;;;;5075768;28;20523;-72
2021/11/02 01:14:53;;;;;;;13.60;6.20;;;7.60;94.90;;;;;;5075624;28;20028;-73
2021/11/02 01:17:19;;;;;;;13.63;5.88;;;7.60;95.00;;;;;;5075222;28;20036;-73
2021/11/02 01:19:45;;;;;;;12.68;6.85;;;7.60;95.00;;;;;;5075201;28;20020;-73
2021/11/02 01:22:10;;;;;;;13.70;6.10;;;7.50;95.00;;;;;;5075438;28;20036;-73
2021/11/02 01:24:36;;;;;;;18.10;6.32;;;7.60;95.20;;;;;;5075555;28;20408;-74
2021/11/02 01:27:02;;;;;;;13.02;6.15;;;7.60;95.20;;;;;;5090636;28;20032;-73
2021/11/02 01:29:28;;;;;;;20.10;6.57;;;7.50;95.00;;;;;;5080959;28;20035;-73
2021/11/02 01:31:54;;;;;;;12.48;6.43;;;7.50;95.00;;;;;;5080318;28;20088;-72
2021/11/02 01:34:20;;;;;;;14.48;6.28;;;7.60;95.20;;;;;;5075664;28;20028;-73
2021/11/02 01:36:46;;;;;;;12.50;6.40;;;7.50;95.30;;;;;;5056980;28;20036;-73
2021/11/02 01:39:11;;;;;;;14.60;6.00;;;7.50;95.10;;;;;;5057162;28;20073;-73
2021/11/02 01:41:37;;;;;;;14.98;5.88;;;7.50;95.20;;;;;;5056780;28;20032;-73
2021/11/02 01:44:04;;;;;;;13.73;5.60;;;7.50;95.10;;;;;;5074757;28;20017;-73
2021/11/02 01:46:33;;;;;;;12.55;6.50;;;7.50;95.20;;;;;;5075587;28;20033;-73
2021/11/02 01:49:01;;;;;;;11.85;5.97;;;7.50;95.10;;;;;;5078017;28;20032;-73
2021/11/02 01:51:29;;;;;;;15.75;6.78;;;7.50;95.10;;;;;;5078911;28;20032;-73
2021/11/02 01:53:55;;;;;;;13.57;6.10;;;7.40;95.00;;;;;;5074949;28;20029;-73
2021/11/02 01:56:21;;;;;;;14.32;6.60;;;7.40;95.30;;;;;;5056820;28;20032;-72
2021/11/02 01:58:52;;;;;;;11.48;5.65;;;7.40;95.30;;;;;;5074827;28;20025;-73
2021/11/02 02:01:37;;;;;;;;;;;7.40;95.20;;;;;;5075347;28;20029;-72
2021/11/02 02:04:23;;;;;;;13.15;6.30;;;7.40;95.20;;;;;;5039100;28;19905;-72
2021/11/02 02:07:19;;;;;;;16.25;5.88;;;7.40;95.40;;;;;;5074713;28;20119;-72
2021/11/02 02:09:58;;;;;;;14.15;7.03;;;7.30;95.10;;;;;;5074388;28;20028;-73
2021/11/02 02:12:29;;;;;;;14.30;6.97;;;7.30;95.30;;;;;;5074514;28;20099;-72
2021/11/02 02:15:10;;;;;;;15.43;6.82;;;7.30;95.30;;;;;;5075014;28;20021;-73
2021/11/02 02:17:42;;;;;;;16.00;7.25;;;7.30;95.70;;;;;;5074896;28;20024;-73
2021/11/02 02:20:14;;;;;;;11.80;6.32;;;7.30;95.40;;;;;;5074963;28;20021;-73
2021/11/02 02:23:01;;;;;;;13.10;6.53;;;7.30;95.50;;;;;;5074526;28;20017;-73
2021/11/02 02:25:54;;;;;;;14.95;6.35;;;7.30;95.40;;;;;;5074697;28;20033;-74
2021/11/02 02:28:37;;;;;;;13.25;6.00;;;7.30;95.20;;;;;;5075412;28;20035;-73
2021/11/02 02:31:05;;;;;;;15.68;6.47;;;7.30;95.10;;;;;;5075526;28;20461;-73
2021/11/02 02:33:41;;;;;;;14.85;6.70;;;7.20;95.00;;;;;;5074103;28;20026;-73
2021/11/02 02:36:07;;;;;;;16.33;7.35;;;7.20;95.10;;;;;;5074345;28;20078;-72
2021/11/02 02:38:37;;;;;;;13.30;5.70;;;7.20;95.20;;;;;;5075004;28;20016;-73
2021/11/02 02:41:04;;;;;;;21.50;6.97;;;7.20;95.30;;;;;;5074130;28;20078;-73
2021/11/02 02:43:33;;;;;;;12.88;6.18;;;7.20;95.20;;;;;;5073921;28;20020;-73
2021/11/02 02:46:00;;;;;;;16.73;6.45;;;7.10;95.20;;;;;;5074053;28;20038;-73
2021/11/02 02:48:27;;;;;;;11.80;6.05;;;7.10;95.20;;;;;;5073878;28;20052;-74
2021/11/02 02:50:55;;;;;;;14.13;6.80;;;7.10;95.10;;;;;;5073884;28;20020;-73
2021/11/02 02:53:21;;;;;;;13.02;6.30;;;7.10;95.00;;;;;;5073758;28;20074;-73
2021/11/02 02:55:48;;;;;;;17.08;7.38;;;7.00;94.90;;;;;;5073554;28;20532;-73
2021/11/02 02:58:15;;;;;;;16.48;7.00;;;7.00;95.00;;;;;;5073331;28;20422;-73
2021/11/02 03:00:43;;;;;;;12.82;7.03;;;7.00;95.20;;;;;;5055552;28;20132;-72
2021/11/02 03:03:12;;;;;;;16.55;7.13;;;7.00;95.40;;;;;;5074155;28;20024;-72
2021/11/02 03:05:38;;;;;;;13.98;6.47;;;7.10;95.40;;;;;;5073300;28;20407;-72
2021/11/02 03:08:04;;;;;;;16.02;6.35;;;7.00;95.60;;;;;;5073821;28;20086;-74
2021/11/02 03:10:31;;;;;;;11.15;6.30;;;7.00;95.50;;;;;;5055697;28;20473;-73
2021/11/02 03:13:05;;;;;;;14.35;6.45;;;7.00;95.50;;;;;;5056323;28;20427;-73
2021/11/02 03:15:52;;;;;;;29.60;7.63;;;7.00;95.50;;;;;;5090893;28;20027;-73
2021/11/02 03:48:57;;;;;;;13.82;7.25;;;6.90;96.00;;;;;;5072868;28;20500;-72
2021/11/02 03:57:16;;;;;;;12.38;6.78;;;6.90;96.10;;;;;;5072886;28;20093;-74
2021/11/02 04:44:21;;;;;;;16.58;8.52;;;6.80;96.00;;;;;;5071778;28;20067;-73
2021/11/02 04:46:53;;;;;;;13.68;7.35;;;6.80;95.90;;;;;;5071770;28;20044;-73
2021/11/02 06:00:13;;;;;;;13.07;6.90;;;6.80;95.70;;;;;;5075080;28;20037;-74
2021/11/02 06:07:58;;;;;;;12.80;7.18;;;6.80;95.50;;;;;;5074178;28;20040;-73
2021/11/02 06:30:11;;;;;;;15.02;7.93;;;6.70;95.50;;;;;;5083541;28;20174;-72
2021/11/02 06:32:40;;;;;;;16.20;7.20;;;6.70;95.60;;;;;;5063819;28;20016;-74
2021/11/02 06:35:21;;;;;;;13.38;7.38;;;6.70;95.70;;;;;;5082821;28;20048;-72
2021/11/02 06:49:17;;;;;;;11.57;6.88;;;6.90;95.90;;;;;;5084589;28;20470;-73
2021/11/02 07:22:30;;;;;;;10.63;5.78;;;8.20;93.70;;;;;;5093268;28;20036;-73
2021/11/02 08:46:40;;;;;;;6.00;3.03;;;9.00;93.80;;;;;;5096365;28;20094;-74
2021/11/02 08:49:06;;;;;;;;;;;9.00;93.90;;;;;;5092685;28;20064;-73
2021/11/02 08:51:34;;;;;;;9.55;4.90;;;9.00;93.90;;;;;;5086972;28;19999;-73
2021/11/02 08:53:59;;;;;;;9.27;5.50;;;9.00;93.70;;;;;;5071457;28;20120;-73
2021/11/02 08:56:25;;;;;;;6.72;4.10;;;8.90;93.60;;;;;;5087143;28;20024;-72
2021/11/02 08:58:53;;;;;;;8.45;4.32;;;8.90;93.90;;;;;;5076542;28;20070;-74
2021/11/02 09:01:22;;;;;;;8.60;5.03;;;8.90;93.80;;;;;;5089184;28;20035;-73
2021/11/02 09:03:54;;;;;;;13.38;5.28;;;8.90;93.80;;;;;;5067187;28;20013;-74
2021/11/02 09:06:23;;;;;;;9.52;5.40;;;8.90;93.80;;;;;;5062702;28;20071;-74
2021/11/02 09:08:54;;;;;;;15.50;5.75;;;8.90;93.90;;;;;;5073672;28;20384;-74
2021/11/02 09:11:22;;;;;;;11.45;5.75;;;8.90;93.90;;;;;;5063330;28;20424;-73
2021/11/02 09:13:50;;;;;;;8.48;5.25;;;9.00;93.90;;;;;;5084921;28;20013;-73
2021/11/02 09:16:17;;;;;;;9.32;5.68;;;9.00;93.80;;;;;;5089617;28;20472;-73
2021/11/02 09:18:44;;;;;;;11.85;5.32;;;9.00;93.80;;;;;;5078659;28;20461;-73
2021/11/02 09:21:10;;;;;;;11.32;5.35;;;9.00;93.90;;;;;;5090117;28;20025;-74
2021/11/02 09:23:39;;;;;;;14.48;6.22;;;9.00;93.90;;;;;;5085425;28;20030;-73
2021/11/02 09:26:05;;;;;;;13.05;5.75;;;9.10;93.90;;;;;;5084371;28;20090;-73
2021/11/02 09:28:32;;;;;;;8.05;4.80;;;9.10;93.80;;;;;;5075312;28;20031;-73
2021/11/02 09:30:58;;;;;;;8.52;4.80;;;9.10;93.90;;;;;;5080399;28;20069;-73
2021/11/02 09:33:24;;;;;;;11.68;5.40;;;9.10;93.90;;;;;;5090838;28;20012;-73
2021/11/02 09:36:02;;;;;;;9.77;4.93;;;9.20;93.90;;;;;;5085034;28;20512;-73
2021/11/02 09:38:35;;;;;;;11.18;4.90;;;9.20;94.00;;;;;;5061476;28;20074;-73
2021/11/02 09:41:44;;;;;;;8.80;5.68;;;9.20;93.80;;;;;;5077644;28;20115;-74
2021/11/02 09:44:24;;;;;;;8.77;4.60;;;9.20;93.70;;;;;;5081673;28;20095;-72
2021/11/02 09:47:29;;;;;;;11.55;5.68;;;9.30;93.70;;;;;;5091117;28;20024;-73
2021/11/02 09:50:10;;;;;;;13.30;6.38;;;9.30;93.60;;;;;;5085092;28;20032;-73
2021/11/02 09:52:59;;;;;;;10.45;5.78;;;9.30;93.70;;;;;;5077829;28;20123;-73
2021/11/02 09:55:46;;;;;;;9.70;6.00;;;9.30;93.80;;;;;;5087626;28;20492;-72
2021/11/02 09:58:17;;;;;;;10.73;6.40;;;9.30;93.80;;;;;;5089542;28;20548;-73
2021/11/02 10:01:12;;;;;;;8.18;3.90;;;9.30;93.80;;;;;;5078805;28;20021;-73
2021/11/02 10:03:57;;;;;;;9.38;5.75;;;9.30;93.90;;;;;;5049854;28;20032;-73
2021/11/02 10:06:46;;;;;;;13.10;6.30;;;9.30;94.10;;;;;;5089645;28;20032;-73
2021/11/02 10:09:35;;;;;;;7.68;4.82;;;9.30;94.10;;;;;;5079282;28;20488;-73
2021/11/02 10:12:22;;;;;;;16.35;7.70;;;9.30;94.20;;;;;;5081993;28;20028;-74
2021/11/02 10:15:27;;;;;;;8.40;5.70;;;9.30;94.40;;;;;;5090796;28;20012;-73
2021/11/02 10:18:03;;;;;;;11.32;5.53;;;9.30;94.20;;;;;;5066965;28;20046;-73
2021/11/02 10:21:10;;;;;;;14.15;7.38;;;9.30;94.40;;;;;;5078466;28;20424;-72
2021/11/02 10:24:24;;;;;;;8.15;4.82;;;9.40;94.40;;;;;;5061914;28;20021;-74
2021/11/02 10:26:59;;;;;;;11.15;7.40;;;9.40;94.40;;;;;;5098563;28;20040;-73
2021/11/02 10:30:15;;;;;;;12.90;7.70;;;9.50;94.30;;;;;;5105572;28;20016;-71
2021/11/02 10:32:45;;;;;;;10.57;7.10;;;9.50;94.30;;;;;;5001872;28;20047;-71
2021/11/02 10:35:11;;;;;;;11.23;6.50;;;9.60;94.30;;;;;;4992698;28;20062;-71
2021/11/02 10:38:02;;;;;;;11.02;7.22;;;9.60;94.40;;;;;;5034110;28;20486;-73
2021/11/02 10:40:40;;;;;;;9.40;5.82;;;9.70;94.40;;;;;;5090375;28;20414;-73
2021/11/02 10:43:39;;;;;;;11.20;6.85;;;9.80;94.30;;;;;;5078707;28;20035;-73
2021/11/02 10:46:11;;;;;;;15.55;8.38;;;9.80;94.20;;;;;;5082127;28;20095;-73
2021/11/02 10:48:44;;;;;;;9.45;6.30;;;9.80;94.10;;;;;;5096948;28;20112;-73
2021/11/02 10:51:43;;;;;;;13.48;7.72;;;9.80;94.10;;;;;;5079354;28;20420;-73
2021/11/02 10:54:35;;;;;;;9.50;6.95;;;9.90;94.10;;;;;;5047714;28;20033;-73
2021/11/02 10:57:35;;;;;;;12.05;8.27;;;10.00;94.00;;;;;;5076476;28;20027;-73
2021/11/02 11:00:05;;;;;;;12.88;6.30;;;10.00;94.00;;;;;;5063198;28;20456;-74
2021/11/02 11:02:31;;;;;;;11.63;7.05;;;10.00;93.90;;;;;;5070643;28;20024;-73
2021/11/02 11:04:59;;;;;;;11.10;6.60;;;10.00;93.80;;;;;;5075736;28;20081;-73
2021/11/02 11:07:34;;;;;;;8.65;5.63;;;10.10;93.90;;;;;;5086494;28;20460;-73
2021/11/02 11:10:02;;;;;;;11.82;6.47;;;10.10;93.90;;;;;;5084448;28;20526;-73
2021/11/02 11:12:33;;;;;;;12.30;7.15;;;10.20;93.80;;;;;;5077535;28;20583;-73
2021/11/02 11:15:06;;;;;;;11.80;6.95;;;10.20;93.60;;;;;;5089127;28;20032;-73
2021/11/02 11:17:34;;;;;;;6.95;4.78;;;10.20;93.50;;;;;;5080601;28;20372;-73
2021/11/02 11:20:09;;;;;;;10.75;5.72;;;10.20;93.50;;;;;;5080977;28;20051;-74
2021/11/02 11:22:45;;;;;;;8.38;4.32;;;10.20;93.60;;;;;;5070923;28;20032;-73
2021/11/02 11:25:16;;;;;;;11.68;7.40;;;10.30;93.60;;;;;;5077834;28;20032;-73
2021/11/02 11:27:55;;;;;;;10.75;6.30;;;10.20;93.00;;;;;;5083593;28;20036;-73
2021/11/02 11:30:27;;;;;;;8.20;5.17;;;10.30;93.20;;;;;;5069626;28;20023;-74
2021/11/02 11:32:53;;;;;;;8.57;5.53;;;10.30;93.30;;;;;;5092883;28;20065;-73
2021/11/02 11:35:19;;;;;;;12.60;7.38;;;10.30;93.20;;;;;;5074799;28;20116;-74
2021/11/02 11:37:47;;;;;;;13.18;7.53;;;10.30;93.00;;;;;;5092796;28;20028;-73
2021/11/02 11:40:20;;;;;;;12.30;5.82;;;10.40;93.00;;;;;;5075064;28;20057;-73
2021/11/02 11:42:56;;;;;;;11.60;6.10;;;10.50;93.00;;;;;;5074694;28;20110;-74
2021/11/02 11:45:24;;;;;;;14.25;7.38;;;10.60;92.90;;;;;;5075112;28;20028;-73
2021/11/02 11:48:12;;;;;;;10.23;4.75;;;10.70;92.90;;;;;;5074826;28;20020;-74
2021/11/02 11:50:41;;;;;;;10.93;7.00;;;10.70;92.70;;;;;;5075892;28;20054;-75
2021/11/02 11:53:07;;;;;;;12.07;6.75;;;10.70;92.50;;;;;;5094552;28;20024;-74
2021/11/02 11:55:42;;;;;;;10.05;5.63;;;10.70;92.40;;;;;;5094653;28;20028;-73
2021/11/02 11:58:24;;;;;;;10.07;6.88;;;10.70;92.40;;;;;;5092730;28;20028;-74
2021/11/02 12:01:10;;;;;;;9.02;5.88;;;10.60;92.20;;;;;;5092419;28;20043;-73
2021/11/02 12:03:50;;;;;;;8.70;5.32;;;10.60;92.40;;;;;;5074933;28;20099;-73
2021/11/02 12:06:16;;;;;;;12.48;6.68;;;10.60;92.40;;;;;;5095903;28;20084;-74
2021/11/02 12:08:44;;;;;;;10.07;5.70;;;10.60;92.30;;;;;;5093362;28;20487;-74
2021/11/02 12:11:15;;;;;;;8.05;3.95;;;10.60;92.40;;;;;;5074273;28;20027;-74
2021/11/02 12:13:41;;;;;;;8.75;6.03;;;10.60;92.50;;;;;;5093698;28;20031;-74
2021/11/02 12:16:21;;;;;;;10.85;7.05;;;10.60;92.40;;;;;;5087880;28;20044;-73
2021/11/02 12:19:17;;;;;;;9.57;5.30;;;10.70;92.20;;;;;;5100517;28;20024;-73
2021/11/02 12:21:48;;;;;;;13.10;7.22;;;10.70;92.00;;;;;;5067452;28;20039;-74
2021/11/02 12:24:16;;;;;;;10.02;6.07;;;10.80;92.00;;;;;;5092319;28;20415;-73
2021/11/02 12:26:50;;;;;;;9.38;6.82;;;10.80;92.00;;;;;;5092015;28;20377;-73
2021/11/02 12:29:23;;;;;;;15.82;8.60;;;10.80;91.90;;;;;;5092369;28;20054;-73
2021/11/02 12:32:00;;;;;;;13.95;7.90;;;10.80;91.90;;;;;;5092264;28;20020;-74
2021/11/02 12:34:29;;;;;;;11.80;7.15;;;10.80;92.10;;;;;;5095981;28;20049;-73
2021/11/02 12:36:58;;;;;;;10.68;6.30;;;10.80;92.20;;;;;;5078301;28;20024;-73
2021/11/02 12:39:30;;;;;;;9.63;6.72;;;10.80;92.10;;;;;;5080873;28;20012;-73
2021/11/02 12:41:59;;;;;;;8.00;4.75;;;10.80;92.10;;;;;;5096553;28;20529;-75
2021/11/02 12:44:30;;;;;;;8.07;5.80;;;10.90;92.20;;;;;;5096781;28;20020;-75
2021/11/02 12:47:00;;;;;;;8.93;6.35;;;10.80;92.20;;;;;;5096286;28;20023;-73
2021/11/02 12:49:43;;;;;;;10.73;6.85;;;10.90;91.80;;;;;;5096164;28;20020;-73
2021/11/02 12:52:11;;;;;;;9.45;6.45;;;10.80;91.50;;;;;;5095778;28;20024;-73
2021/11/02 12:54:38;;;;;;;10.57;6.90;;;10.80;91.80;;;;;;5096356;28;20023;-73
2021/11/02 12:57:12;;;;;;;7.85;5.25;;;10.80;91.90;;;;;;5077807;28;20027;-73
2021/11/02 12:59:58;;;;;;;9.90;6.53;;;10.90;91.90;;;;;;5096546;28;20024;-73
2021/11/02 13:02:35;;;;;;;8.30;6.40;;;10.90;91.70;;;;;;5096226;28;20483;-72
2021/11/02 13:05:13;;;;;;;8.90;6.65;;;10.90;91.80;;;;;;5095995;28;20042;-73
2021/11/02 13:07:40;;;;;;;8.82;6.35;;;11.00;91.90;;;;;;5095681;28;20523;-73
2021/11/02 13:10:21;;;;;;;9.93;6.28;;;11.00;91.80;;;;;;5095764;28;20024;-73
2021/11/02 13:12:52;;;;;;;9.63;6.88;;;11.10;91.70;;;;;;5096216;28;20380;-74
2021/11/02 13:15:19;;;;;;;12.20;6.55;;;11.10;91.70;;;;;;5096156;28;20020;-73
2021/11/02 13:17:47;;;;;;;9.63;7.40;;;11.10;91.70;;;;;;5096122;28;20024;-73
2021/11/02 13:20:30;;;;;;;11.93;7.40;;;11.10;91.60;;;;;;5096288;28;20405;-74
2021/11/02 13:22:56;;;;;;;11.18;7.65;;;11.20;91.40;;;;;;5095720;28;20027;-72
2021/11/02 13:25:24;;;;;;;9.98;6.57;;;11.10;91.40;;;;;;5095573;28;20032;-73
2021/11/02 13:27:55;;;;;;;13.60;7.30;;;11.20;91.30;;;;;;5096134;28;20023;-73
2021/11/02 13:30:26;;;;;;;9.90;6.90;;;11.20;91.30;;;;;;5096145;28;20077;-74
2021/11/02 13:33:15;;;;;;;12.38;6.90;;;11.30;91.30;;;;;;5078370;28;20016;-74
2021/11/02 13:35:54;;;;;;;13.15;8.13;;;11.30;91.30;;;;;;5078481;28;20028;-74
2021/11/02 13:38:27;;;;;;;7.75;5.05;;;11.40;91.20;;;;;;5096916;28;20017;-74
2021/11/02 13:41:00;;;;;;;10.35;7.63;;;11.40;91.30;;;;;;5096949;28;20063;-74
2021/11/02 13:43:43;;;;;;;12.63;7.28;;;11.40;91.00;;;;;;5097439;28;20043;-73
2021/11/02 13:46:10;;;;;;;10.68;7.20;;;11.40;91.20;;;;;;5078710;28;20077;-74
2021/11/02 13:48:38;;;;;;;14.07;8.25;;;11.40;91.10;;;;;;5095419;28;20035;-74
2021/11/02 13:51:05;;;;;;;17.05;8.98;;;11.40;91.20;;;;;;5094636;28;20362;-74
2021/11/02 13:53:34;;;;;;;9.60;5.78;;;11.30;91.30;;;;;;5094876;28;20448;-74
2021/11/02 13:56:22;;;;;;;9.68;5.70;;;11.30;91.40;;;;;;5095544;28;20024;-74
2021/11/02 13:58:48;;;;;;;9.68;6.95;;;11.20;91.30;;;;;;5077913;28;20067;-74
2021/11/02 14:01:28;;;;;;;9.88;5.65;;;11.20;91.20;;;;;;5096419;28;20464;-74
2021/11/02 14:04:19;;;;;;;11.13;6.63;;;11.10;91.50;;;;;;5099401;28;20024;-77
2021/11/02 14:06:50;;;;;;;8.70;5.97;;;11.10;91.40;;;;;;5108346;28;20040;-73
2021/11/02 14:09:27;;;;;;;9.15;5.22;;;11.10;91.70;;;;;;5111319;28;20031;-74
2021/11/02 14:11:53;;;;;;;8.23;5.50;;;11.00;91.60;;;;;;5102495;28;20016;-75
2021/11/02 14:14:36;;;;;;;10.05;4.68;;;11.00;91.70;;;;;;5094886;28;20032;-73
2021/11/02 14:17:14;;;;;;;7.88;5.45;;;10.90;91.70;;;;;;5076246;28;20032;-75
2021/11/02 14:19:42;;;;;;;7.78;4.32;;;10.90;91.60;;;;;;5094394;28;20027;-81
2021/11/02 14:22:09;;;;;;;8.48;5.57;;;10.90;91.80;;;;;;5075867;28;20388;-81
2021/11/02 14:24:40;;;;;;;6.97;4.05;;;10.90;91.80;;;;;;5075944;28;20380;-73
2021/11/02 14:27:12;;;;;;;8.30;5.43;;;10.90;92.00;;;;;;5093997;28;20115;-73
2021/11/02 14:29:46;;;;;;;9.82;5.65;;;10.90;91.80;;;;;;5094566;28;20043;-74
2021/11/02 14:32:37;;;;;;;13.15;6.03;;;10.80;91.90;;;;;;5094177;28;20020;-74
2021/11/02 14:35:10;;;;;;;9.32;5.80;;;10.80;92.00;;;;;;5076000;28;20031;-73
2021/11/02 14:37:53;;;;;;;6.13;3.40;;;10.80;92.20;;;;;;5093981;28;20035;-74
2021/11/02 14:40:33;;;;;;;4.97;2.50;;;10.80;91.40;;;;;;5093702;28;20052;-74
2021/11/02 14:43:18;;;;;;;4.30;2.03;;;10.70;91.50;;;;;;5094063;28;20020;-74
2021/11/02 14:45:49;;;;;;;4.35;2.13;;;10.60;90.70;;;;;;5093760;28;20024;-74
2021/11/02 14:48:34;;;;;;;2.20;1.50;;;10.50;90.60;;;;;;5093716;28;20028;-75
2021/11/02 14:51:03;;;;;;;2.78;1.55;;;10.40;90.60;;;;;;5093885;28;20460;-72
2021/11/02 14:53:37;;;;;;;2.60;1.77;;;10.30;90.60;;;;;;5080852;28;20461;-74
2021/11/02 14:56:06;;;;;;;5.47;1.85;;;10.30;90.80;;;;;;5075261;28;20059;-74
2021/11/02 15:01:06;;;;;;;4.70;2.47;;;10.10;91.30;;;;;;5093817;28;20028;-76
2021/11/02 15:03:33;;;;;;;5.60;2.67;;;10.00;91.50;;;;;;5093722;28;20024;-76
2021/11/02 15:06:08;;;;;;;4.45;2.80;;;9.90;91.90;;;;;;5093333;28;20038;-75
2021/11/02 15:08:36;;;;;;;6.70;3.13;;;9.90;92.10;;;;;;5075238;28;20024;-73
2021/11/02 15:11:16;;;;;;;4.30;2.67;;;9.90;92.30;;;;;;5048274;28;20937;-74
2021/11/02 15:13:54;;;;;;;4.50;2.55;;;9.80;92.40;;;;;;5091604;28;20066;-74
2021/11/02 15:16:22;;;;;;;4.68;2.90;;;9.80;92.40;;;;;;5075097;28;20353;-75
2021/11/02 15:19:04;;;;;;;3.65;1.80;;;9.80;92.60;;;;;;5075310;28;20020;-75
2021/11/02 15:21:35;;;;;;;4.10;2.63;;;9.90;92.60;;;;;;5093771;28;20452;-75
2021/11/02 15:24:07;;;;;;;3.45;1.80;;;9.90;92.50;;;;;;5093511;28;20031;-75
2021/11/02 15:26:44;;;;;;;4.40;1.98;;;9.80;92.50;;;;;;5075052;28;20396;-74
2021/11/02 15:29:11;;;;;;;3.33;2.05;;;9.80;92.60;;;;;;5093442;28;20032;-74
2021/11/02 15:31:37;;;;;;;5.43;3.75;;;9.80;92.70;;;;;;5093820;28;20465;-74
2021/11/02 15:34:15;;;;;;;5.25;2.83;;;9.80;92.70;;;;;;5095838;28;20030;-74
2021/11/02 15:36:44;;;;;;;5.28;3.15;;;9.90;92.80;;;;;;5107629;28;20079;-73
2021/11/02 15:39:10;;;;;;;10.93;6.78;;;9.90;92.80;;;;;;5099500;28;20069;-74
2021/11/02 15:41:37;;;;;;;4.28;2.85;;;9.90;92.90;;;;;;5075161;28;20052;-75
2021/11/02 15:44:06;;;;;;;6.10;2.97;;;9.90;92.80;;;;;;5075032;28;20062;-74
2021/11/02 15:46:35;;;;;;;7.50;2.93;;;9.90;92.70;;;;;;5093809;28;20077;-75
2021/11/02 15:49:04;;;;;;;5.43;3.40;;;9.90;92.70;;;;;;5093569;28;20472;-75
2021/11/02 15:51:33;;;;;;;6.10;3.17;;;9.90;92.80;;;;;;5076101;28;20047;-75
2021/11/02 15:54:04;;;;;;;6.45;3.70;;;9.90;92.90;;;;;;5082454;28;20024;-75
2021/11/02 15:56:30;;;;;;;7.18;4.40;;;9.90;93.00;;;;;;5106555;28;20413;-75
2021/11/02 15:59:04;;;;;;;6.85;4.20;;;9.80;93.10;;;;;;5110211;28;20114;-72
2021/11/02 16:01:43;;;;;;;9.23;5.05;;;9.90;93.20;;;;;;5103972;28;20024;-75
2021/11/02 16:04:13;;;;;;;9.00;5.38;;;9.90;93.30;;;;;;5094548;28;20121;-74
2021/11/02 16:06:58;;;;;;;7.17;4.70;;;9.90;93.30;;;;;;5095093;28;20050;-73
2021/11/02 16:09:45;;;;;;;8.30;5.93;;;9.90;93.40;;;;;;5086515;28;20043;-74
2021/11/02 16:12:17;;;;;;;11.10;6.82;;;10.00;93.60;;;;;;5094028;28;20028;-74
2021/11/02 16:14:49;;;;;;;9.90;5.70;;;9.90;93.50;;;;;;5094448;28;20023;-75
2021/11/02 16:17:15;;;;;;;6.85;4.53;;;9.90;93.50;;;;;;5074796;28;20467;-75
2021/11/02 16:19:41;;;;;;;8.70;6.30;;;9.90;93.20;;;;;;5075181;28;20115;-75
2021/11/02 16:22:07;;;;;;;11.18;6.20;;;9.80;93.20;;;;;;5075605;28;20463;-75
2021/11/02 16:24:33;;;;;;;10.18;6.00;;;9.80;93.20;;;;;;5074793;28;20027;-76
2021/11/02 16:27:17;;;;;;;10.48;5.80;;;9.80;93.50;;;;;;5074523;28;20036;-74
2021/11/02 16:29:43;;;;;;;8.57;6.90;;;9.80;93.50;;;;;;5092504;28;20017;-75
2021/11/02 16:32:27;;;;;;;9.70;7.35;;;9.80;93.70;;;;;;5092325;28;20024;-74
2021/11/02 16:34:54;;;;;;;8.60;6.28;;;9.80;94.00;;;;;;5074969;28;20034;-76
2021/11/02 16:37:31;;;;;;;8.65;6.63;;;9.80;93.80;;;;;;5069924;28;20069;-76
2021/11/02 16:40:33;;;;;;;9.40;6.68;;;9.90;93.70;;;;;;5074296;28;20020;-76
2021/11/02 16:43:01;;;;;;;9.82;6.40;;;9.80;93.60;;;;;;5074057;28;20052;-75
2021/11/02 16:45:35;;;;;;;6.90;5.07;;;9.80;93.70;;;;;;5091794;28;20036;-76
2021/11/02 16:48:07;;;;;;;8.60;7.45;;;9.80;93.50;;;;;;5092260;28;20035;-76
2021/11/02 16:50:36;;;;;;;10.77;5.80;;;9.70;93.50;;;;;;5074275;28;20024;-76
2021/11/02 16:53:23;;;;;;;6.93;4.60;;;9.70;93.60;;;;;;5092388;28;20052;-74
2021/11/02 16:55:48;;;;;;;6.88;4.35;;;9.70;93.70;;;;;;5074336;28;20051;-75
2021/11/02 16:58:21;;;;;;;6.65;4.90;;;9.70;93.60;;;;;;5092216;28;20055;-75
2021/11/02 17:01:08;;;;;;;7.32;4.50;;;9.70;93.50;;;;;;5092321;28;20016;-76
2021/11/02 17:03:35;;;;;;;6.30;4.25;;;9.70;93.50;;;;;;5074474;28;20035;-75
2021/11/02 17:06:10;;;;;;;6.80;5.10;;;9.60;93.70;;;;;;5092855;28;20071;-75
2021/11/02 17:08:36;;;;;;;7.00;4.35;;;9.60;93.90;;;;;;5075753;28;20047;-75
2021/11/02 17:11:01;;;;;;;5.55;3.90;;;9.60;94.10;;;;;;5094589;28;20419;-74
2021/11/02 17:13:35;;;;;;;6.07;3.65;;;9.60;93.90;;;;;;5093373;28;20092;-73
2021/11/02 17:16:09;;;;;;;6.93;3.97;;;9.50;93.80;;;;;;5091932;28;20059;-73
2021/11/02 17:18:52;;;;;;;7.72;4.80;;;9.50;93.80;;;;;;5074179;28;20016;-74
2021/11/02 17:21:20;;;;;;;5.95;3.53;;;9.40;93.70;;;;;;5095807;28;20079;-74
2021/11/02 17:23:47;;;;;;;7.20;3.70;;;9.40;93.70;;;;;;5096634;28;20111;-74
2021/11/02 17:26:14;;;;;;;8.82;3.72;;;9.40;93.60;;;;;;5080209;28;20035;-74
2021/11/02 17:28:46;;;;;;;6.50;3.15;;;9.40;93.60;;;;;;5081463;28;20072;-72
2021/11/02 17:31:12;;;;;;;8.27;3.70;;;9.40;93.60;;;;;;5097502;28;20020;-73
2021/11/02 17:33:38;;;;;;;7.38;3.95;;;9.30;93.60;;;;;;5095997;28;20024;-74
2021/11/02 17:36:12;;;;;;;6.97;3.90;;;9.30;93.70;;;;;;5095364;28;20024;-73
2021/11/02 17:38:41;;;;;;;5.45;3.60;;;9.30;93.70;;;;;;5095443;28;20020;-73
2021/11/02 17:41:09;;;;;;;6.30;3.70;;;9.20;93.70;;;;;;5095689;28;20035;-73
2021/11/02 17:43:36;;;;;;;6.10;4.03;;;9.20;93.70;;;;;;5102632;28;20028;-72
2021/11/02 17:46:03;;;;;;;7.97;4.03;;;9.20;94.10;;;;;;5091845;28;20036;-73
2021/11/02 17:48:29;;;;;;;8.52;4.25;;;9.10;93.70;;;;;;5092872;28;20012;-72
2021/11/02 17:50:56;;;;;;;7.60;3.90;;;9.10;93.80;;;;;;5086552;28;20032;-74
2021/11/02 17:53:21;;;;;;;7.57;4.75;;;9.10;93.80;;;;;;5076986;28;20050;-74
2021/11/02 17:55:47;;;;;;;10.90;5.38;;;9.00;93.80;;;;;;5095308;28;20535;-73
2021/11/02 17:58:13;;;;;;;12.05;6.63;;;9.00;93.90;;;;;;5094804;28;20108;-74
2021/11/02 18:00:39;;;;;;;9.70;6.38;;;9.00;93.90;;;;;;5095077;28;20037;-74
2021/11/02 18:03:08;;;;;;;9.40;4.57;;;9.00;93.90;;;;;;5076852;28;20069;-73
2021/11/02 18:05:34;;;;;;;8.38;5.50;;;8.90;93.90;;;;;;5095185;28;20186;-73
2021/11/02 18:08:01;;;;;;;8.50;4.72;;;8.90;93.90;;;;;;5078675;28;20032;-75
2021/11/02 18:10:28;;;;;;;13.40;7.95;;;8.90;93.80;;;;;;5104883;28;20030;-75
2021/11/02 18:12:55;;;;;;;8.48;4.90;;;8.90;93.80;;;;;;5076819;28;20439;-76
2021/11/02 18:15:21;;;;;;;7.57;4.70;;;8.90;93.90;;;;;;5094734;28;20032;-76
2021/11/02 18:17:49;;;;;;;8.80;4.88;;;8.90;94.20;;;;;;5094667;28;20081;-75
2021/11/02 18:20:16;;;;;;;13.90;8.32;;;8.90;94.00;;;;;;5094361;28;20028;-76